createdAt,value
2023-04-14T00:00:22.506Z,7.17
2023-04-14T00:02:26.546Z,6.27
2023-04-14T00:04:30.314Z,6.03
2023-04-14T00:06:34.733Z,5.50
2023-04-14T00:08:38.735Z,4.03
2023-04-14T00:11:21.335Z,5.30
2023-04-14T00:13:26.452Z,6.27
2023-04-14T00:15:30.039Z,7.67
2023-04-14T00:17:33.560Z,6.63
2023-04-14T00:19:37.145Z,5.93
2023-04-14T00:21:40.933Z,7.73
2023-04-14T00:25:45.064Z,5.37
2023-04-14T00:27:48.911Z,5.80
2023-04-14T00:29:54.188Z,8.93
2023-04-14T00:35:36.880Z,7.87
2023-04-14T00:37:40.450Z,7.50
2023-04-14T00:39:44.005Z,7.20
2023-04-14T00:41:52.997Z,10.60
2023-04-14T00:43:56.538Z,7.33
2023-04-14T00:46:01.865Z,6.90
2023-04-14T00:48:07.642Z,6.80
2023-04-14T00:50:11.975Z,5.83
2023-04-14T00:52:15.796Z,8.40
2023-04-14T00:54:20.587Z,9.63
2023-04-14T00:56:39.955Z,8.30
2023-04-14T00:58:43.372Z,6.50
2023-04-14T01:00:53.887Z,9.60
2023-04-14T01:03:00.019Z,6.43
2023-04-14T01:05:04.023Z,7.40
2023-04-14T01:07:07.582Z,7.13
2023-04-14T01:09:11.841Z,7.40
2023-04-14T01:11:18.311Z,7.70
2023-04-14T01:13:33.668Z,7.83
2023-04-14T01:15:40.670Z,7.40
2023-04-14T01:17:47.307Z,8.97
2023-04-14T01:20:11.022Z,9.23
2023-04-14T01:22:14.538Z,8.77
2023-04-14T01:24:30.688Z,9.00
2023-04-14T01:26:34.231Z,12.03
2023-04-14T01:29:02.839Z,9.37
2023-04-14T01:31:23.222Z,8.47
2023-04-14T01:37:31.471Z,8.40
2023-04-14T01:39:37.474Z,10.00
2023-04-14T01:41:43.848Z,8.83
2023-04-14T01:43:53.022Z,9.93
2023-04-14T01:45:57.466Z,9.13
2023-04-14T01:48:03.163Z,7.77
2023-04-14T01:50:12.882Z,10.23
2023-04-14T01:52:16.869Z,10.70
2023-04-14T01:54:20.330Z,10.33
2023-04-14T01:56:23.785Z,10.67
2023-04-14T02:03:53.133Z,12.13
2023-04-14T02:05:58.073Z,13.50
2023-04-14T02:08:01.695Z,15.30
2023-04-14T02:10:05.942Z,13.30
2023-04-14T02:15:26.091Z,11.37
2023-04-14T02:17:29.927Z,11.77
2023-04-14T02:19:33.817Z,11.43
2023-04-14T02:21:38.945Z,10.63
2023-04-14T02:34:08.554Z,6.97
2023-04-14T02:36:15.490Z,7.93
2023-04-14T02:38:23.535Z,11.63
2023-04-14T02:43:57.620Z,9.87
2023-04-14T02:46:03.425Z,7.23
2023-04-14T02:48:10.659Z,6.70
2023-04-14T02:50:15.491Z,5.10
2023-04-14T02:52:19.563Z,4.00
2023-04-14T02:54:24.499Z,4.97
2023-04-14T02:56:28.018Z,3.93
2023-04-14T02:58:31.504Z,5.00
2023-04-14T03:00:35.029Z,5.57
2023-04-14T03:02:38.584Z,5.30
2023-04-14T03:04:42.447Z,6.30
2023-04-14T03:06:46.032Z,7.17
2023-04-14T03:08:49.687Z,4.57
2023-04-14T03:10:54.604Z,4.53
2023-04-14T03:12:58.861Z,6.67
2023-04-14T03:15:02.359Z,6.87
2023-04-14T03:17:05.678Z,6.07
2023-04-14T03:19:10.539Z,6.17
2023-04-14T03:21:34.986Z,6.90
2023-04-14T03:23:38.358Z,7.17
2023-04-14T03:25:41.710Z,5.90
2023-04-14T03:27:46.590Z,6.33
2023-04-14T03:29:52.391Z,4.97
2023-04-14T03:31:56.503Z,8.70
2023-04-14T03:34:17.113Z,8.80
2023-04-14T03:36:20.536Z,12.47
2023-04-14T03:38:23.990Z,11.03
2023-04-14T03:40:30.835Z,15.50
2023-04-14T03:42:40.581Z,13.47
2023-04-14T03:44:50.284Z,14.40
2023-04-14T03:46:54.673Z,13.53
2023-04-14T03:48:59.766Z,11.57
2023-04-14T03:51:03.515Z,9.50
2023-04-14T03:53:08.586Z,11.00
2023-04-14T03:55:12.786Z,10.57
2023-04-14T03:57:17.824Z,11.40
2023-04-14T03:59:22.780Z,14.50
2023-04-14T04:01:28.104Z,12.73
2023-04-14T04:03:33.668Z,13.73
2023-04-14T04:05:38.750Z,17.70
2023-04-14T04:07:42.368Z,11.67
2023-04-14T04:09:53.313Z,13.00
2023-04-14T04:11:58.782Z,11.20
2023-04-14T04:14:02.461Z,12.77
2023-04-14T04:16:06.589Z,11.33
2023-04-14T04:18:11.577Z,12.80
2023-04-14T04:20:16.011Z,9.53
2023-04-14T04:22:19.921Z,9.87
2023-04-14T04:24:24.538Z,10.47
2023-04-14T04:26:28.262Z,11.20
2023-04-14T04:28:31.900Z,10.60
2023-04-14T04:30:35.960Z,11.00
2023-04-14T04:32:39.886Z,11.17
2023-04-14T04:34:44.945Z,9.63
2023-04-14T04:36:48.680Z,11.13
2023-04-14T04:39:16.503Z,12.23
2023-04-14T04:41:23.234Z,11.63
2023-04-14T04:43:28.229Z,11.17
2023-04-14T04:45:57.628Z,11.70
2023-04-14T04:48:01.535Z,11.13
2023-04-14T04:50:07.366Z,13.50
2023-04-14T04:52:10.832Z,13.03
2023-04-14T04:54:14.527Z,12.33
2023-04-14T04:56:20.294Z,11.00
2023-04-14T04:58:23.979Z,12.50
2023-04-14T05:00:27.704Z,11.87
2023-04-14T05:02:31.731Z,12.23
2023-04-14T05:04:35.584Z,11.47
2023-04-14T05:06:40.943Z,13.80
2023-04-14T05:08:44.765Z,12.60
2023-04-14T05:10:56.148Z,13.53
2023-04-14T05:13:03.041Z,13.33
2023-04-14T05:15:08.496Z,11.00
2023-04-14T05:17:13.310Z,11.53
2023-04-14T05:19:20.592Z,10.73
2023-04-14T05:21:24.660Z,10.33
2023-04-14T05:23:29.776Z,12.20
2023-04-14T05:25:33.353Z,14.00
2023-04-14T05:27:37.402Z,11.20
2023-04-14T05:29:41.292Z,12.43
2023-04-14T05:31:45.282Z,13.00
2023-04-14T05:33:48.949Z,11.70
2023-04-14T05:35:59.012Z,11.33
2023-04-14T05:38:02.657Z,11.23
2023-04-14T05:40:09.238Z,10.70
2023-04-14T05:42:12.738Z,14.27
2023-04-14T05:44:16.280Z,12.47
2023-04-14T05:46:27.197Z,12.13
2023-04-14T05:48:32.435Z,11.63
2023-04-14T05:50:37.971Z,14.13
2023-04-14T05:52:41.693Z,11.73
2023-04-14T05:54:45.319Z,11.63
2023-04-14T05:56:50.697Z,9.70
2023-04-14T05:58:55.947Z,13.13
2023-04-14T06:00:59.816Z,13.32
2023-04-14T06:03:03.968Z,18.10
2023-04-14T06:05:08.638Z,12.48
2023-04-14T06:07:12.485Z,14.00
2023-04-14T06:09:46.780Z,15.35
2023-04-14T06:11:51.745Z,15.02
2023-04-14T06:13:55.207Z,49.08
2023-04-14T06:15:59.793Z,50.80
2023-04-14T06:18:03.909Z,51.08
2023-04-14T06:20:08.985Z,42.83
2023-04-14T06:22:17.111Z,125.53
2023-04-14T06:24:22.202Z,37.45
2023-04-14T06:26:26.047Z,14.20
2023-04-14T06:28:31.176Z,24.73
2023-04-14T06:30:34.654Z,30.02
2023-04-14T06:32:38.487Z,16.42
2023-04-14T06:34:42.330Z,16.70
2023-04-14T06:36:45.897Z,17.57
2023-04-14T06:38:49.758Z,14.48
2023-04-14T06:40:53.723Z,51.10
2023-04-14T06:42:57.223Z,65.15
2023-04-14T06:45:02.876Z,94.00
2023-04-14T06:47:06.681Z,89.53
2023-04-14T06:49:10.203Z,52.95
2023-04-14T06:51:14.465Z,71.70
2023-04-14T06:53:18.581Z,534.95
2023-04-14T06:55:22.642Z,411.97
2023-04-14T06:57:26.599Z,272.52
2023-04-14T06:59:30.598Z,545.10
2023-04-14T07:01:36.018Z,133.10
2023-04-14T07:03:40.160Z,400.43
2023-04-14T07:05:44.233Z,382.13
2023-04-14T07:11:04.560Z,667.30
2023-04-14T07:13:08.012Z,345.93
2023-04-14T07:15:14.285Z,500.50
2023-04-14T07:17:19.348Z,437.58
2023-04-14T07:19:23.243Z,402.02
2023-04-14T07:21:27.563Z,587.58
2023-04-14T07:23:31.312Z,205.23
2023-04-14T07:25:37.213Z,127.43
2023-04-14T07:27:47.284Z,101.63
2023-04-14T07:30:00.043Z,207.10
2023-04-14T07:32:03.803Z,272.67
2023-04-14T07:34:10.355Z,258.85
2023-04-14T07:36:14.198Z,235.05
2023-04-14T07:38:20.336Z,203.07
2023-04-14T07:40:28.258Z,114.20
2023-04-14T07:42:37.386Z,313.48
2023-04-14T07:44:40.977Z,159.43
2023-04-14T07:46:44.714Z,152.27
2023-04-14T07:48:48.645Z,442.50
2023-04-14T07:50:54.992Z,246.57
2023-04-14T07:52:59.529Z,608.92
2023-04-14T07:55:03.276Z,65.07
2023-04-14T07:57:08.794Z,88.72
2023-04-14T07:59:12.633Z,340.42
2023-04-14T08:01:17.050Z,208.63
2023-04-14T08:03:21.375Z,20.63
2023-04-14T08:05:25.295Z,29.30
2023-04-14T08:07:31.051Z,35.15
2023-04-14T08:09:34.897Z,23.60
2023-04-14T08:11:38.483Z,21.77
2023-04-14T08:13:42.163Z,18.27
2023-04-14T08:15:46.025Z,29.15
2023-04-14T08:17:49.939Z,19.38
2023-04-14T08:19:54.042Z,61.38
2023-04-14T08:21:58.084Z,23.52
2023-04-14T08:24:03.996Z,20.60
2023-04-14T08:26:07.873Z,19.33
2023-04-14T08:28:11.872Z,16.83
2023-04-14T08:30:16.075Z,18.65
2023-04-14T08:32:20.052Z,18.58
2023-04-14T08:34:28.326Z,18.75
2023-04-14T08:36:32.677Z,20.42
2023-04-14T08:38:36.246Z,42.22
2023-04-14T08:40:42.041Z,21.33
2023-04-14T08:42:46.120Z,20.58
2023-04-14T08:44:52.788Z,22.33
2023-04-14T08:46:56.883Z,19.25
2023-04-14T08:49:04.452Z,19.90
2023-04-14T08:51:11.623Z,19.73
2023-04-14T08:53:15.441Z,18.63
2023-04-14T08:55:19.234Z,17.95
2023-04-14T08:57:24.810Z,18.40
2023-04-14T08:59:28.934Z,19.50
2023-04-14T09:01:35.135Z,19.25
2023-04-14T09:03:39.990Z,17.48
2023-04-14T09:05:43.995Z,18.38
2023-04-14T09:07:47.482Z,18.25
2023-04-14T09:09:51.153Z,18.65
2023-04-14T09:11:56.158Z,19.95
2023-04-14T09:14:02.590Z,18.40
2023-04-14T09:16:07.269Z,19.77
2023-04-14T09:18:11.460Z,17.65
2023-04-14T09:20:34.683Z,17.20
2023-04-14T09:22:39.571Z,16.15
2023-04-14T09:24:43.277Z,16.65
2023-04-14T09:26:47.168Z,17.92
2023-04-14T09:28:50.918Z,15.32
2023-04-14T09:30:56.231Z,19.02
2023-04-14T09:33:01.183Z,15.57
2023-04-14T09:35:06.490Z,14.68
2023-04-14T09:37:11.218Z,15.50
2023-04-14T09:39:19.007Z,15.60
2023-04-14T09:41:43.099Z,16.45
2023-04-14T09:46:39.323Z,18.20
2023-04-14T09:48:55.527Z,15.93
2023-04-14T09:51:00.733Z,17.65
2023-04-14T09:53:06.012Z,15.77
2023-04-14T09:55:11.877Z,15.70
2023-04-14T09:57:25.775Z,14.55
2023-04-14T09:59:34.067Z,17.73
2023-04-14T10:01:39.322Z,17.73
2023-04-14T10:03:44.472Z,14.27
2023-04-14T10:05:48.975Z,15.38
2023-04-14T10:07:52.900Z,15.52
2023-04-14T10:09:56.729Z,14.32
2023-04-14T10:12:11.139Z,13.15
2023-04-14T10:14:14.979Z,13.45
2023-04-14T10:16:19.045Z,15.20
2023-04-14T10:18:24.183Z,11.50
2023-04-14T10:20:28.260Z,12.02
2023-04-14T10:22:32.038Z,13.13
2023-04-14T10:24:35.937Z,10.73
2023-04-14T10:26:40.123Z,11.52
2023-04-14T10:28:45.347Z,9.68
2023-04-14T10:30:49.727Z,10.48
2023-04-14T10:32:54.870Z,10.10
2023-04-14T10:35:02.511Z,13.63
2023-04-14T10:37:23.981Z,13.32
2023-04-14T10:39:28.131Z,11.45
2023-04-14T10:41:39.384Z,10.68
2023-04-14T10:43:43.188Z,9.90
2023-04-14T10:45:55.534Z,8.73
2023-04-14T10:47:59.605Z,9.48
2023-04-14T10:50:14.923Z,7.65
2023-04-14T10:52:33.506Z,6.85
2023-04-14T10:54:54.066Z,7.47
2023-04-14T10:57:11.190Z,7.32
2023-04-14T10:59:17.794Z,5.97
2023-04-14T11:01:28.359Z,6.35
2023-04-14T11:03:33.349Z,9.52
2023-04-14T11:05:38.883Z,7.43
2023-04-14T11:07:46.050Z,5.70
2023-04-14T11:09:50.520Z,6.10
2023-04-14T11:11:56.806Z,5.90
2023-04-14T11:14:12.565Z,6.20
2023-04-14T11:16:16.725Z,5.95
2023-04-14T11:18:22.396Z,7.55
2023-04-14T11:20:26.424Z,12.30
2023-04-14T11:22:41.832Z,5.20
2023-04-14T11:24:45.633Z,5.75
2023-04-14T11:26:49.954Z,7.78
2023-04-14T11:28:54.791Z,7.28
2023-04-14T11:30:59.738Z,6.05
2023-04-14T11:33:03.594Z,7.47
2023-04-14T11:35:10.384Z,7.38
2023-04-14T11:37:14.248Z,6.18
2023-04-14T11:39:19.685Z,6.85
2023-04-14T11:41:23.363Z,7.20
2023-04-14T11:43:27.480Z,7.13
2023-04-14T11:45:31.180Z,7.15
2023-04-14T11:47:35.045Z,7.03
2023-04-14T11:49:39.396Z,7.60
2023-04-14T11:51:43.374Z,7.10
2023-04-14T11:53:47.659Z,6.03
2023-04-14T11:55:54.260Z,6.78
2023-04-14T11:57:58.390Z,6.80
2023-04-14T12:00:02.203Z,9.27
2023-04-14T12:02:07.454Z,6.75
2023-04-14T12:04:12.685Z,8.27
2023-04-14T12:06:16.714Z,6.30
2023-04-14T12:08:20.592Z,7.45
2023-04-14T12:10:25.380Z,6.15
2023-04-14T12:12:31.399Z,5.70
2023-04-14T12:14:35.231Z,7.25
2023-04-14T12:16:39.708Z,4.47
2023-04-14T12:18:43.301Z,5.90
2023-04-14T12:20:47.305Z,6.47
2023-04-14T12:22:52.013Z,7.63
2023-04-14T12:24:56.181Z,5.72
2023-04-14T12:26:59.845Z,4.10
2023-04-14T12:29:05.426Z,5.57
2023-04-14T12:31:09.526Z,6.85
2023-04-14T12:33:13.706Z,6.93
2023-04-14T12:35:24.019Z,9.05
2023-04-14T12:37:27.985Z,8.48
2023-04-14T12:39:31.963Z,6.35
2023-04-14T12:41:36.284Z,6.05
2023-04-14T12:43:40.824Z,7.38
2023-04-14T12:45:46.364Z,6.20
2023-04-14T12:47:54.116Z,5.20
2023-04-14T12:49:58.743Z,7.53
2023-04-14T12:52:02.926Z,6.00
2023-04-14T12:54:09.275Z,7.15
2023-04-14T12:56:13.752Z,4.93
2023-04-14T12:58:17.579Z,6.07
2023-04-14T13:00:21.616Z,6.07
2023-04-14T13:02:27.458Z,5.72
2023-04-14T13:04:31.843Z,7.07
2023-04-14T13:06:36.378Z,4.78
2023-04-14T13:08:40.344Z,5.00
2023-04-14T13:10:44.067Z,6.03
2023-04-14T13:12:48.260Z,6.65
2023-04-14T13:14:52.092Z,8.63
2023-04-14T13:16:56.265Z,5.15
2023-04-14T13:19:01.626Z,4.63
2023-04-14T13:21:06.049Z,6.10
2023-04-14T13:23:10.415Z,5.45
2023-04-14T13:25:14.247Z,7.78
2023-04-14T13:27:18.756Z,6.10
2023-04-14T13:29:22.870Z,3.88
2023-04-14T13:31:26.942Z,4.53
2023-04-14T13:33:31.198Z,4.85
2023-04-14T13:35:36.804Z,5.95
2023-04-14T13:37:41.443Z,3.55
2023-04-14T13:39:45.257Z,6.70
2023-04-14T13:41:49.609Z,5.88
2023-04-14T13:43:53.275Z,7.20
2023-04-14T13:45:59.358Z,4.47
2023-04-14T13:48:03.552Z,5.15
2023-04-14T13:50:08.117Z,4.65
2023-04-14T13:52:13.411Z,5.55
2023-04-14T13:54:17.127Z,5.93
2023-04-14T13:56:22.886Z,6.45
2023-04-14T13:58:26.527Z,3.50
2023-04-14T14:00:30.204Z,4.55
2023-04-14T14:02:34.317Z,6.57
2023-04-14T14:04:38.343Z,5.57
2023-04-14T14:06:42.281Z,5.82
2023-04-14T14:08:47.857Z,4.57
2023-04-14T14:10:51.836Z,4.00
2023-04-14T14:12:55.859Z,4.82
2023-04-14T14:14:59.478Z,5.97
2023-04-14T14:17:03.261Z,2.55
2023-04-14T14:19:08.473Z,4.80
2023-04-14T14:21:11.996Z,4.03
2023-04-14T14:23:16.534Z,7.50
2023-04-14T14:25:21.987Z,5.65
2023-04-14T14:27:25.606Z,4.60
2023-04-14T14:29:29.376Z,5.75
2023-04-14T14:31:33.435Z,4.90
2023-04-14T14:33:38.148Z,4.18
2023-04-14T14:35:41.943Z,3.85
2023-04-14T14:37:45.976Z,4.53
2023-04-14T14:39:50.102Z,3.92
2023-04-14T14:41:55.297Z,5.10
2023-04-14T14:44:00.007Z,5.03
2023-04-14T14:46:05.412Z,4.93
2023-04-14T14:49:00.443Z,5.18
2023-04-14T14:51:06.834Z,4.40
2023-04-14T14:53:13.598Z,5.22
2023-04-14T14:55:19.552Z,3.55
2023-04-14T14:57:25.989Z,3.97
2023-04-14T14:59:29.673Z,4.03
2023-04-14T15:01:34.166Z,3.92
2023-04-14T15:03:39.608Z,6.18
2023-04-14T15:05:43.528Z,5.20
2023-04-14T15:07:47.314Z,4.28
2023-04-14T15:09:51.328Z,3.90
2023-04-14T15:11:57.020Z,5.53
2023-04-14T15:14:02.543Z,2.88
2023-04-14T15:16:07.064Z,3.47
2023-04-14T15:18:10.861Z,5.60
2023-04-14T15:20:15.059Z,3.40
2023-04-14T15:22:19.344Z,3.90
2023-04-14T15:24:22.967Z,4.97
2023-04-14T15:26:26.551Z,3.45
2023-04-14T15:28:30.738Z,7.28
2023-04-14T15:30:35.771Z,4.68
2023-04-14T15:32:39.513Z,4.80
2023-04-14T15:34:43.121Z,5.00
2023-04-14T15:36:51.321Z,3.92
2023-04-14T15:38:55.293Z,3.22
2023-04-14T15:40:59.004Z,3.33
2023-04-14T15:43:02.988Z,3.88
2023-04-14T15:45:09.463Z,3.92
2023-04-14T15:47:14.877Z,5.43
2023-04-14T15:49:18.797Z,4.10
2023-04-14T15:51:22.922Z,6.00
2023-04-14T15:53:26.478Z,4.13
2023-04-14T15:55:30.169Z,3.50
2023-04-14T15:57:59.913Z,4.63
2023-04-14T16:00:07.756Z,4.10
2023-04-14T16:02:11.468Z,4.93
2023-04-14T16:04:22.994Z,4.82
2023-04-14T16:06:28.721Z,4.57
2023-04-14T16:08:32.865Z,3.65
2023-04-14T16:10:40.857Z,5.13
2023-04-14T16:12:44.773Z,5.43
2023-04-14T16:14:48.452Z,4.28
2023-04-14T16:16:52.904Z,5.60
2023-04-14T16:18:56.549Z,5.60
2023-04-14T16:21:01.412Z,5.25
2023-04-14T16:23:05.159Z,4.70
2023-04-14T16:25:09.536Z,4.28
2023-04-14T16:27:13.722Z,5.00
2023-04-14T16:29:17.496Z,4.30
2023-04-14T16:31:21.284Z,5.35
2023-04-14T16:33:24.873Z,4.18
2023-04-14T16:35:28.713Z,4.65
2023-04-14T16:37:34.577Z,5.38
2023-04-14T16:39:38.218Z,3.90
2023-04-14T16:41:42.156Z,5.45
2023-04-14T16:43:45.986Z,5.30
2023-04-14T16:45:50.108Z,3.50
2023-04-14T16:47:53.830Z,3.95
2023-04-14T16:49:57.594Z,3.25
2023-04-14T16:52:01.270Z,5.03
2023-04-14T16:54:06.400Z,5.60
2023-04-14T16:56:10.658Z,5.13
2023-04-14T16:58:14.994Z,6.00
2023-04-14T17:00:19.347Z,5.90
2023-04-14T17:02:23.183Z,4.30
2023-04-14T17:04:27.121Z,4.57
2023-04-14T17:06:33.381Z,4.65
2023-04-14T17:08:37.012Z,4.18
2023-04-14T17:10:43.082Z,3.92
2023-04-14T17:12:47.404Z,3.65
2023-04-14T17:14:51.208Z,5.60
2023-04-14T17:16:55.551Z,4.63
2023-04-14T17:18:59.760Z,4.88
2023-04-14T17:21:03.476Z,4.05
2023-04-14T17:23:08.069Z,4.18
2023-04-14T17:25:12.316Z,4.65
2023-04-14T17:27:18.854Z,6.10
2023-04-14T17:29:22.618Z,3.90
2023-04-14T17:31:26.718Z,4.90
2023-04-14T17:33:32.006Z,4.63
2023-04-14T17:35:35.687Z,4.35
2023-04-14T17:37:39.344Z,3.92
2023-04-14T17:39:43.559Z,3.85
2023-04-14T17:41:48.097Z,3.97
2023-04-14T17:43:53.288Z,4.15
2023-04-14T17:45:59.314Z,5.05
2023-04-14T17:48:03.898Z,6.22
2023-04-14T17:50:09.540Z,4.65
2023-04-14T17:52:13.403Z,3.38
2023-04-14T17:54:17.451Z,4.80
2023-04-14T17:56:25.925Z,2.75
2023-04-14T17:58:29.807Z,3.35
2023-04-14T18:00:35.881Z,3.83
2023-04-14T18:02:39.907Z,4.07
2023-04-14T18:04:43.700Z,4.50
2023-04-14T18:06:47.226Z,3.45
2023-04-14T18:08:51.779Z,3.78
2023-04-14T18:10:55.570Z,5.25
2023-04-14T18:12:59.772Z,4.03
2023-04-14T18:15:03.988Z,4.18
2023-04-14T18:17:09.146Z,4.18
2023-04-14T18:19:12.925Z,5.07
2023-04-14T18:21:17.199Z,6.53
2023-04-14T18:23:20.857Z,5.20
2023-04-14T18:25:24.608Z,2.20
2023-04-14T18:29:35.149Z,4.80
2023-04-14T18:31:39.061Z,5.95
2023-04-14T18:33:44.511Z,7.90
2023-04-14T18:35:51.347Z,3.83
2023-04-14T18:37:54.998Z,4.75
2023-04-14T18:39:58.678Z,5.40
2023-04-14T18:42:02.285Z,5.43
2023-04-14T18:44:17.260Z,6.78
2023-04-14T18:46:21.821Z,7.93
2023-04-14T18:48:27.886Z,5.80
2023-04-14T18:50:33.939Z,5.35
2023-04-14T18:53:16.321Z,5.97
2023-04-14T18:55:23.706Z,5.30
2023-04-14T18:57:29.141Z,5.05
2023-04-14T18:59:51.612Z,4.53
2023-04-14T19:01:55.546Z,6.68
2023-04-14T19:03:59.405Z,3.97
2023-04-14T19:06:04.571Z,4.03
2023-04-14T19:08:08.068Z,3.70
2023-04-14T19:10:11.912Z,4.63
2023-04-14T19:12:25.428Z,3.08
2023-04-14T19:14:31.840Z,2.78
2023-04-14T19:16:37.685Z,5.10
2023-04-14T19:18:41.905Z,4.63
2023-04-14T19:20:47.608Z,3.60
2023-04-14T19:22:52.872Z,6.28
2023-04-14T19:24:56.427Z,5.88
2023-04-14T19:26:59.859Z,4.35
2023-04-14T19:29:03.785Z,6.00
2023-04-14T19:31:07.542Z,5.03
2023-04-14T19:33:31.529Z,7.72
2023-04-14T19:35:35.479Z,4.43
2023-04-14T19:37:38.974Z,5.47
2023-04-14T19:39:44.432Z,3.80
2023-04-14T19:41:47.929Z,5.28
2023-04-14T19:44:01.096Z,4.80
2023-04-14T19:46:05.390Z,3.50
2023-04-14T19:48:22.174Z,4.40
2023-04-14T19:50:27.840Z,4.35
2023-04-14T19:52:31.233Z,2.42
2023-04-14T19:54:34.800Z,3.70
2023-04-14T19:56:39.929Z,5.55
2023-04-14T19:59:00.231Z,4.88
2023-04-14T20:01:04.159Z,4.25
2023-04-14T20:03:08.137Z,3.40
2023-04-14T20:05:12.847Z,5.32
2023-04-14T20:07:16.401Z,3.58
2023-04-14T20:09:20.081Z,5.18
2023-04-14T20:11:54.875Z,5.45
2023-04-14T20:13:58.503Z,4.00
2023-04-14T20:16:02.401Z,6.75
2023-04-14T20:18:06.426Z,4.97
2023-04-14T20:20:11.945Z,4.60
2023-04-14T20:22:15.966Z,5.93
2023-04-14T20:24:20.193Z,5.32
2023-04-14T20:26:35.238Z,6.50
2023-04-14T20:28:40.704Z,4.30
2023-04-14T20:30:45.274Z,5.18
2023-04-14T20:32:49.241Z,4.40
2023-04-14T20:38:19.130Z,4.72
2023-04-14T20:40:22.972Z,4.00
2023-04-14T20:42:27.097Z,6.28
2023-04-14T20:44:32.890Z,5.55
2023-04-14T20:46:36.699Z,6.13
2023-04-14T20:48:40.580Z,9.63
2023-04-14T20:51:03.201Z,8.45
2023-04-14T20:53:07.653Z,5.13
2023-04-14T20:55:12.067Z,5.00
2023-04-14T20:57:15.814Z,3.78
2023-04-14T20:59:21.639Z,6.55
2023-04-14T21:01:28.136Z,4.28
2023-04-14T21:03:34.610Z,4.38
2023-04-14T21:05:38.292Z,3.92
2023-04-14T21:07:42.383Z,5.85
2023-04-14T21:09:46.197Z,5.75
2023-04-14T21:11:49.614Z,3.47
2023-04-14T21:15:30.397Z,7.40
2023-04-14T21:16:38.531Z,5.10
2023-04-14T21:18:42.541Z,3.33
2023-04-14T21:21:40.906Z,5.03
2023-04-14T21:23:44.351Z,5.57
2023-04-14T21:25:48.224Z,4.10
2023-04-14T21:27:51.678Z,3.35
2023-04-14T21:29:55.482Z,3.42
2023-04-14T21:32:00.821Z,3.70
2023-04-14T21:34:04.691Z,5.35
2023-04-14T21:36:30.426Z,5.25
2023-04-14T21:38:34.063Z,6.78
2023-04-14T21:40:37.509Z,3.53
2023-04-14T21:42:41.633Z,3.67
2023-04-14T21:44:45.163Z,6.70
2023-04-14T21:46:48.809Z,3.70
2023-04-14T21:48:53.927Z,4.80
2023-04-14T21:50:57.806Z,3.58
2023-04-14T21:56:27.693Z,3.10
2023-04-14T21:58:31.594Z,4.88
2023-04-14T22:00:35.766Z,5.30
2023-04-14T22:02:39.442Z,4.05
2023-04-14T22:04:44.805Z,4.07
2023-04-14T22:06:48.401Z,2.67
2023-04-14T22:08:52.184Z,4.90
2023-04-14T22:11:34.199Z,3.07
2023-04-14T22:13:37.819Z,5.33
2023-04-14T22:15:41.930Z,4.67
2023-04-14T22:17:46.620Z,5.00
2023-04-14T22:19:51.785Z,8.02
2023-04-14T22:21:55.374Z,3.63
2023-04-14T22:24:07.527Z,3.70
2023-04-14T22:26:11.917Z,3.73
2023-04-14T22:28:15.546Z,3.17
2023-04-14T22:30:19.307Z,5.87
2023-04-14T22:32:23.001Z,5.43
2023-04-14T22:34:26.879Z,5.73
2023-04-14T22:36:33.354Z,5.30
2023-04-14T22:38:37.092Z,5.00
2023-04-14T22:40:40.981Z,5.88
2023-04-14T22:42:44.734Z,5.03
2023-04-14T22:48:14.833Z,7.03
2023-04-14T22:50:18.795Z,4.93
2023-04-14T22:52:24.625Z,3.60
2023-04-14T22:54:48.933Z,5.33
2023-04-14T22:56:52.534Z,4.47
2023-04-14T22:58:58.129Z,3.13
2023-04-14T23:01:12.130Z,5.18
2023-04-14T23:03:23.589Z,5.43
2023-04-14T23:08:55.157Z,4.05
2023-04-14T23:10:58.604Z,6.33
2023-04-14T23:13:02.198Z,5.82
2023-04-14T23:16:19.345Z,3.65
2023-04-14T23:18:24.671Z,4.30
2023-04-14T23:20:28.344Z,3.73
2023-04-14T23:22:32.078Z,8.00
2023-04-14T23:24:37.503Z,2.77
2023-04-14T23:26:41.600Z,5.23
2023-04-14T23:28:45.260Z,5.63
2023-04-14T23:30:49.311Z,3.37
2023-04-14T23:32:52.965Z,3.50
2023-04-14T23:34:56.545Z,3.13
2023-04-14T23:37:00.135Z,5.00
2023-04-14T23:39:04.157Z,2.80
2023-04-14T23:44:35.437Z,5.67
2023-04-14T23:46:39.550Z,3.37
2023-04-14T23:48:43.332Z,4.60
2023-04-14T23:54:02.994Z,2.80
2023-04-14T23:56:07.244Z,4.43
2023-04-14T23:58:11.369Z,4.30
